createdAt,value
2023-04-16T00:00:13.395Z,94893.00
2023-04-16T00:01:13.392Z,94891.00
2023-04-16T00:02:13.506Z,94891.00
2023-04-16T00:03:13.621Z,94893.00
2023-04-16T00:04:13.428Z,94895.00
2023-04-16T00:05:13.368Z,94895.00
2023-04-16T00:06:13.357Z,94893.00
2023-04-16T00:07:13.353Z,94901.00
2023-04-16T00:08:13.381Z,94901.00
2023-04-16T00:09:13.353Z,94903.00
2023-04-16T00:10:13.335Z,94903.00
2023-04-16T00:11:13.394Z,94907.00
2023-04-16T00:12:13.444Z,94905.00
2023-04-16T00:13:13.578Z,94909.00
2023-04-16T00:14:13.574Z,94907.00
2023-04-16T00:15:13.623Z,94909.00
2023-04-16T00:16:13.708Z,94905.00
2023-04-16T00:17:13.750Z,94918.00
2023-04-16T00:18:13.876Z,94918.00
2023-04-16T00:19:13.875Z,94920.00
2023-04-16T00:20:13.945Z,94922.00
2023-04-16T00:21:14.036Z,94922.00
2023-04-16T00:22:14.064Z,94922.00
2023-04-16T00:23:14.127Z,94922.00
2023-04-16T00:24:14.193Z,94920.00
2023-04-16T00:25:14.253Z,94920.00
2023-04-16T00:26:14.336Z,94920.00
2023-04-16T00:27:14.371Z,94920.00
2023-04-16T00:28:14.431Z,94920.00
2023-04-16T00:29:14.550Z,94918.00
2023-04-16T00:30:14.576Z,94922.00
2023-04-16T00:31:14.694Z,94918.00
2023-04-16T00:32:14.690Z,94918.00
2023-04-16T00:33:14.749Z,94918.00
2023-04-16T00:34:14.827Z,94911.00
2023-04-16T00:35:14.881Z,94909.00
2023-04-16T00:36:14.944Z,94911.00
2023-04-16T00:37:15.012Z,94911.00
2023-04-16T00:38:15.077Z,94918.00
2023-04-16T00:39:15.130Z,94918.00
2023-04-16T00:40:15.205Z,94918.00
2023-04-16T00:41:15.271Z,94911.00
2023-04-16T00:42:15.362Z,94911.00
2023-04-16T00:43:15.387Z,94918.00
2023-04-16T00:44:15.453Z,94918.00
2023-04-16T00:45:15.551Z,94920.00
2023-04-16T00:46:15.605Z,94924.00
2023-04-16T00:47:15.722Z,94924.00
2023-04-16T00:48:15.705Z,94922.00
2023-04-16T00:49:15.772Z,94924.00
2023-04-16T00:50:15.836Z,94922.00
2023-04-16T00:51:15.898Z,94922.00
2023-04-16T00:52:15.947Z,94922.00
2023-04-16T00:53:16.018Z,94920.00
2023-04-16T00:54:16.097Z,94920.00
2023-04-16T00:55:16.168Z,94920.00
2023-04-16T00:56:17.458Z,94920.00
2023-04-16T00:57:16.391Z,94920.00
2023-04-16T00:58:16.444Z,94920.00
2023-04-16T00:59:16.498Z,94920.00
2023-04-16T01:00:16.564Z,94920.00
2023-04-16T01:01:16.664Z,94922.00
2023-04-16T01:02:16.850Z,94922.00
2023-04-16T01:03:16.892Z,94920.00
2023-04-16T01:04:16.876Z,94920.00
2023-04-16T01:05:16.871Z,94920.00
2023-04-16T01:06:16.933Z,94920.00
2023-04-16T01:07:16.999Z,94926.00
2023-04-16T01:08:17.061Z,94924.00
2023-04-16T01:09:17.117Z,94924.00
2023-04-16T01:10:17.199Z,94922.00
2023-04-16T01:11:17.245Z,94926.00
2023-04-16T01:12:17.296Z,94922.00
2023-04-16T01:13:17.357Z,94924.00
2023-04-16T01:14:17.418Z,94926.00
2023-04-16T01:15:17.475Z,94924.00
2023-04-16T01:16:17.565Z,94926.00
2023-04-16T01:17:17.632Z,94928.00
2023-04-16T01:18:17.660Z,94928.00
2023-04-16T01:19:17.718Z,94926.00
2023-04-16T01:20:17.787Z,94928.00
2023-04-16T01:21:17.840Z,94926.00
2023-04-16T01:22:17.918Z,94926.00
2023-04-16T01:23:17.982Z,94928.00
2023-04-16T01:24:18.035Z,94928.00
2023-04-16T01:25:18.085Z,94926.00
2023-04-16T01:26:18.143Z,94928.00
2023-04-16T01:27:18.213Z,94928.00
2023-04-16T01:28:18.266Z,94926.00
2023-04-16T01:29:18.327Z,94928.00
2023-04-16T01:30:18.387Z,94926.00
2023-04-16T01:31:18.517Z,94926.00
2023-04-16T01:32:18.571Z,94926.00
2023-04-16T01:33:18.589Z,94928.00
2023-04-16T01:34:18.618Z,94928.00
2023-04-16T01:35:18.688Z,94926.00
2023-04-16T01:36:18.751Z,94928.00
2023-04-16T01:37:18.820Z,94926.00
2023-04-16T01:38:18.875Z,94930.00
2023-04-16T01:39:18.934Z,94930.00
2023-04-16T01:40:19.011Z,94930.00
2023-04-16T01:41:19.064Z,94930.00
2023-04-16T01:42:19.150Z,94928.00
2023-04-16T01:43:19.187Z,94928.00
2023-04-16T01:44:19.247Z,94928.00
2023-04-16T01:45:19.310Z,94932.00
2023-04-16T01:46:19.436Z,94930.00
2023-04-16T01:47:19.461Z,94932.00
2023-04-16T01:48:19.494Z,94934.00
2023-04-16T01:49:19.569Z,94934.00
2023-04-16T01:50:19.651Z,94932.00
2023-04-16T01:51:19.664Z,94936.00
2023-04-16T01:52:19.731Z,94936.00
2023-04-16T01:53:19.794Z,94934.00
2023-04-16T01:54:19.855Z,94936.00
2023-04-16T01:55:19.907Z,94936.00
2023-04-16T01:56:19.960Z,94938.00
2023-04-16T01:57:20.035Z,94938.00
2023-04-16T01:58:20.093Z,94936.00
2023-04-16T01:59:20.153Z,94934.00
2023-04-16T02:00:20.212Z,94936.00
2023-04-16T02:01:20.307Z,94936.00
2023-04-16T02:02:20.426Z,94938.00
2023-04-16T02:03:20.516Z,94938.00
2023-04-16T02:04:20.460Z,94934.00
2023-04-16T02:05:20.546Z,94936.00
2023-04-16T02:06:20.582Z,94934.00
2023-04-16T02:07:20.646Z,94936.00
2023-04-16T02:08:20.710Z,94936.00
2023-04-16T02:09:20.770Z,94938.00
2023-04-16T02:10:20.839Z,94938.00
2023-04-16T02:11:20.899Z,94936.00
2023-04-16T02:12:20.963Z,94934.00
2023-04-16T02:13:21.034Z,94934.00
2023-04-16T02:14:21.086Z,94936.00
2023-04-16T02:15:21.148Z,94936.00
2023-04-16T02:16:21.275Z,94940.00
2023-04-16T02:17:21.363Z,94938.00
2023-04-16T02:18:21.351Z,94940.00
2023-04-16T02:19:21.418Z,94938.00
2023-04-16T02:20:21.471Z,94942.00
2023-04-16T02:21:21.568Z,94944.00
2023-04-16T02:22:21.597Z,94940.00
2023-04-16T02:23:21.649Z,94940.00
2023-04-16T02:24:21.711Z,94940.00
2023-04-16T02:25:21.793Z,94938.00
2023-04-16T02:26:21.836Z,94940.00
2023-04-16T02:27:21.903Z,94942.00
2023-04-16T02:28:21.955Z,94940.00
2023-04-16T02:29:22.029Z,94942.00
2023-04-16T02:30:22.090Z,94942.00
2023-04-16T02:31:22.164Z,94940.00
2023-04-16T02:32:22.245Z,94944.00
2023-04-16T02:33:22.281Z,94940.00
2023-04-16T02:34:22.359Z,94944.00
2023-04-16T02:35:22.406Z,94950.00
2023-04-16T02:36:22.468Z,94948.00
2023-04-16T02:37:22.552Z,94948.00
2023-04-16T02:38:22.614Z,94948.00
2023-04-16T02:39:22.664Z,94950.00
2023-04-16T02:40:22.724Z,94948.00
2023-04-16T02:41:22.784Z,94950.00
2023-04-16T02:42:22.849Z,94952.00
2023-04-16T02:43:22.911Z,94950.00
2023-04-16T02:44:22.974Z,94952.00
2023-04-16T02:45:23.028Z,94956.00
2023-04-16T02:46:23.249Z,94957.00
2023-04-16T02:47:23.185Z,94956.00
2023-04-16T02:48:23.208Z,94957.00
2023-04-16T02:49:23.270Z,94959.00
2023-04-16T02:50:23.337Z,94959.00
2023-04-16T02:51:23.396Z,94959.00
2023-04-16T02:52:23.460Z,94959.00
2023-04-16T02:53:23.728Z,94959.00
2023-04-16T02:54:23.579Z,94962.00
2023-04-16T02:55:23.697Z,94965.00
2023-04-16T02:56:23.721Z,94964.00
2023-04-16T02:57:23.765Z,94967.00
2023-04-16T02:58:23.832Z,94965.00
2023-04-16T02:59:23.890Z,94965.00
2023-04-16T03:00:23.967Z,94959.00
2023-04-16T03:01:24.053Z,94964.00
2023-04-16T03:02:24.141Z,94962.00
2023-04-16T03:03:24.191Z,94957.00
2023-04-16T03:04:24.263Z,94956.00
2023-04-16T03:05:24.276Z,94962.00
2023-04-16T03:06:24.329Z,94959.00
2023-04-16T03:07:24.393Z,94959.00
2023-04-16T03:08:24.451Z,94962.00
2023-04-16T03:09:24.541Z,94959.00
2023-04-16T03:10:24.597Z,94959.00
2023-04-16T03:11:24.650Z,94962.00
2023-04-16T03:12:24.710Z,94959.00
2023-04-16T03:13:24.771Z,94962.00
2023-04-16T03:14:24.831Z,94959.00
2023-04-16T03:15:24.903Z,94962.00
2023-04-16T03:16:24.970Z,94962.00
2023-04-16T03:17:25.057Z,94959.00
2023-04-16T03:18:25.102Z,94959.00
2023-04-16T03:19:25.153Z,94959.00
2023-04-16T03:20:25.213Z,94962.00
2023-04-16T03:21:25.289Z,94962.00
2023-04-16T03:22:25.341Z,94964.00
2023-04-16T03:23:25.404Z,94962.00
2023-04-16T03:24:25.470Z,94959.00
2023-04-16T03:25:25.561Z,94962.00
2023-04-16T03:26:25.603Z,94964.00
2023-04-16T03:27:25.661Z,94964.00
2023-04-16T03:28:25.719Z,94967.00
2023-04-16T03:29:25.781Z,94967.00
2023-04-16T03:30:25.852Z,94967.00
2023-04-16T03:31:25.942Z,94967.00
2023-04-16T03:32:26.024Z,94967.00
2023-04-16T03:33:26.048Z,94965.00
2023-04-16T03:34:26.110Z,94965.00
2023-04-16T03:35:26.168Z,94962.00
2023-04-16T03:36:26.238Z,94964.00
2023-04-16T03:37:26.296Z,94962.00
2023-04-16T03:38:26.366Z,94964.00
2023-04-16T03:39:26.437Z,94964.00
2023-04-16T03:40:26.487Z,94959.00
2023-04-16T03:41:26.583Z,94962.00
2023-04-16T03:42:26.599Z,94964.00
2023-04-16T03:43:26.667Z,94962.00
2023-04-16T03:44:26.739Z,94964.00
2023-04-16T03:45:26.796Z,94965.00
2023-04-16T03:46:26.897Z,94967.00
2023-04-16T03:47:26.948Z,94969.00
2023-04-16T03:48:26.980Z,94971.00
2023-04-16T03:49:27.048Z,94973.00
2023-04-16T03:50:27.115Z,94975.00
2023-04-16T03:51:27.168Z,94975.00
2023-04-16T03:52:27.233Z,94975.00
2023-04-16T03:53:27.295Z,94973.00
2023-04-16T03:54:27.354Z,94973.00
2023-04-16T03:55:27.405Z,94973.00
2023-04-16T03:56:27.493Z,94977.00
2023-04-16T03:57:27.557Z,94981.00
2023-04-16T03:58:27.599Z,94981.00
2023-04-16T03:59:27.659Z,94983.00
2023-04-16T04:00:27.728Z,94987.00
2023-04-16T04:01:27.791Z,94989.00
2023-04-16T04:02:27.987Z,94991.00
2023-04-16T04:03:28.045Z,94993.00
2023-04-16T04:04:28.125Z,94995.00
2023-04-16T04:05:28.042Z,94997.00
2023-04-16T04:06:28.110Z,94999.00
2023-04-16T04:07:28.178Z,95001.00
2023-04-16T04:08:28.241Z,95001.00
2023-04-16T04:09:28.304Z,95001.00
2023-04-16T04:10:28.355Z,95004.00
2023-04-16T04:11:28.434Z,95004.00
2023-04-16T04:12:28.490Z,95006.00
2023-04-16T04:13:28.595Z,95004.00
2023-04-16T04:14:28.613Z,95006.00
2023-04-16T04:15:28.672Z,95006.00
2023-04-16T04:16:28.810Z,95008.00
2023-04-16T04:17:28.819Z,95008.00
2023-04-16T04:18:28.859Z,95006.00
2023-04-16T04:19:28.915Z,95004.00
2023-04-16T04:20:28.985Z,95004.00
2023-04-16T04:21:29.039Z,95004.00
2023-04-16T04:22:29.103Z,95008.00
2023-04-16T04:23:29.184Z,95006.00
2023-04-16T04:24:29.228Z,95010.00
2023-04-16T04:25:29.283Z,95010.00
2023-04-16T04:26:29.362Z,95010.00
2023-04-16T04:27:29.405Z,95008.00
2023-04-16T04:28:29.477Z,95010.00
2023-04-16T04:29:29.557Z,95008.00
2023-04-16T04:30:29.598Z,95010.00
2023-04-16T04:31:29.709Z,95012.00
2023-04-16T04:32:29.786Z,95012.00
2023-04-16T04:33:29.795Z,95012.00
2023-04-16T04:34:29.845Z,95014.00
2023-04-16T04:35:29.927Z,95014.00
2023-04-16T04:36:29.980Z,95014.00
2023-04-16T04:37:30.033Z,95016.00
2023-04-16T04:38:30.097Z,95016.00
2023-04-16T04:39:30.167Z,95018.00
2023-04-16T04:40:30.220Z,95020.00
2023-04-16T04:41:30.288Z,95020.00
2023-04-16T04:42:30.342Z,95020.00
2023-04-16T04:43:30.413Z,95026.00
2023-04-16T04:44:30.469Z,95024.00
2023-04-16T04:45:32.082Z,95024.00
2023-04-16T04:46:30.531Z,95028.00
2023-04-16T04:47:30.604Z,95030.00
2023-04-16T04:48:30.513Z,95030.00
2023-04-16T04:49:30.523Z,95032.00
2023-04-16T04:50:30.501Z,95034.00
2023-04-16T04:51:30.490Z,95032.00
2023-04-16T04:52:30.502Z,95036.00
2023-04-16T04:53:30.494Z,95036.00
2023-04-16T04:54:30.476Z,95036.00
2023-04-16T04:55:30.466Z,95032.00
2023-04-16T04:56:30.456Z,95036.00
2023-04-16T04:57:30.458Z,95032.00
2023-04-16T04:58:30.451Z,95036.00
2023-04-16T04:59:30.442Z,95038.00
2023-04-16T05:00:30.429Z,95034.00
2023-04-16T05:01:30.472Z,95036.00
2023-04-16T05:02:30.482Z,95038.00
2023-04-16T05:03:30.517Z,95038.00
2023-04-16T05:04:30.414Z,95038.00
2023-04-16T05:05:30.398Z,95040.00
2023-04-16T05:06:30.395Z,95042.00
2023-04-16T05:07:30.433Z,95040.00
2023-04-16T05:08:30.485Z,95040.00
2023-04-16T05:09:30.550Z,95038.00
2023-04-16T05:10:30.623Z,95040.00
2023-04-16T05:11:30.675Z,95040.00
2023-04-16T05:12:30.735Z,95042.00
2023-04-16T05:13:30.796Z,95042.00
2023-04-16T05:14:30.855Z,95044.00
2023-04-16T05:15:30.914Z,95046.00
2023-04-16T05:16:31.022Z,95044.00
2023-04-16T05:17:31.100Z,95046.00
2023-04-16T05:18:31.114Z,95048.00
2023-04-16T05:19:31.179Z,95048.00
2023-04-16T05:20:31.255Z,95048.00
2023-04-16T05:21:31.315Z,95050.00
2023-04-16T05:22:31.377Z,95051.00
2023-04-16T05:23:31.438Z,95055.00
2023-04-16T05:24:31.498Z,95057.00
2023-04-16T05:25:31.559Z,95059.00
2023-04-16T05:26:31.632Z,95065.00
2023-04-16T05:27:31.697Z,95065.00
2023-04-16T05:28:31.769Z,95067.00
2023-04-16T05:29:31.843Z,95067.00
2023-04-16T05:30:31.964Z,95069.00
2023-04-16T05:31:31.951Z,95067.00
2023-04-16T05:32:32.049Z,95067.00
2023-04-16T05:33:32.172Z,95065.00
2023-04-16T05:34:32.140Z,95067.00
2023-04-16T05:35:32.202Z,95069.00
2023-04-16T05:36:32.291Z,95071.00
2023-04-16T05:37:32.312Z,95069.00
2023-04-16T05:38:32.375Z,95069.00
2023-04-16T05:39:32.442Z,95071.00
2023-04-16T05:40:32.509Z,95069.00
2023-04-16T05:41:32.572Z,95069.00
2023-04-16T05:42:32.647Z,95069.00
2023-04-16T05:43:32.704Z,95071.00
2023-04-16T05:44:32.759Z,95071.00
2023-04-16T05:45:32.817Z,95073.00
2023-04-16T05:46:32.980Z,95073.00
2023-04-16T05:47:32.987Z,95075.00
2023-04-16T05:48:33.019Z,95075.00
2023-04-16T05:49:33.109Z,95075.00
2023-04-16T05:50:33.143Z,95079.00
2023-04-16T05:51:33.214Z,95079.00
2023-04-16T05:52:33.266Z,95079.00
2023-04-16T05:53:33.326Z,95081.00
2023-04-16T05:54:33.394Z,95083.00
2023-04-16T05:55:33.450Z,95085.00
2023-04-16T05:56:33.512Z,95083.00
2023-04-16T05:57:33.569Z,95083.00
2023-04-16T05:58:33.640Z,95085.00
2023-04-16T05:59:33.690Z,95087.00
2023-04-16T06:00:33.775Z,95085.00
2023-04-16T06:01:34.456Z,95085.00
2023-04-16T06:02:34.163Z,95087.00
2023-04-16T06:03:34.149Z,95085.00
2023-04-16T06:04:34.001Z,95089.00
2023-04-16T06:05:34.115Z,95089.00
2023-04-16T06:06:34.129Z,95091.00
2023-04-16T06:07:34.180Z,95089.00
2023-04-16T06:08:34.247Z,95091.00
2023-04-16T06:09:34.298Z,95093.00
2023-04-16T06:10:34.373Z,95091.00
2023-04-16T06:11:36.341Z,95091.00
2023-04-16T06:12:34.413Z,95089.00
2023-04-16T06:13:34.404Z,95087.00
2023-04-16T06:14:34.406Z,95083.00
2023-04-16T06:15:34.387Z,95083.00
2023-04-16T06:16:34.436Z,95083.00
2023-04-16T06:17:34.499Z,95081.00
2023-04-16T06:18:34.365Z,95081.00
2023-04-16T06:19:34.370Z,95079.00
2023-04-16T06:20:34.376Z,95077.00
2023-04-16T06:21:34.370Z,95077.00
2023-04-16T06:22:34.345Z,95077.00
2023-04-16T06:23:34.330Z,95075.00
2023-04-16T06:24:34.332Z,95073.00
2023-04-16T06:25:34.321Z,95071.00
2023-04-16T06:26:34.307Z,95071.00
2023-04-16T06:27:34.311Z,95071.00
2023-04-16T06:28:34.295Z,95069.00
2023-04-16T06:29:41.202Z,95071.00
2023-04-16T06:30:34.278Z,95073.00
2023-04-16T06:31:34.327Z,95073.00
2023-04-16T06:32:34.329Z,95073.00
2023-04-16T06:33:34.259Z,95077.00
2023-04-16T06:34:34.255Z,95077.00
2023-04-16T06:35:34.247Z,95079.00
2023-04-16T06:36:34.237Z,95079.00
2023-04-16T06:37:34.257Z,95079.00
2023-04-16T06:38:34.223Z,95081.00
2023-04-16T06:39:34.225Z,95081.00
2023-04-16T06:40:34.215Z,95081.00
2023-04-16T06:41:34.203Z,95077.00
2023-04-16T06:42:34.215Z,95083.00
2023-04-16T06:43:34.198Z,95085.00
2023-04-16T06:44:34.182Z,95079.00
2023-04-16T06:45:34.179Z,95081.00
2023-04-16T06:46:34.209Z,95083.00
2023-04-16T06:47:34.185Z,95083.00
2023-04-16T06:48:34.172Z,95083.00
2023-04-16T06:49:34.154Z,95085.00
2023-04-16T06:50:34.151Z,95085.00
2023-04-16T06:51:34.142Z,95085.00
2023-04-16T06:52:34.134Z,95087.00
2023-04-16T06:53:34.173Z,95087.00
2023-04-16T06:54:34.204Z,95093.00
2023-04-16T06:55:34.269Z,95093.00
2023-04-16T06:56:34.326Z,95093.00
2023-04-16T06:57:37.293Z,95091.00
2023-04-16T06:58:34.387Z,95091.00
2023-04-16T06:59:34.378Z,95091.00
2023-04-16T07:00:34.391Z,95091.00
2023-04-16T07:01:34.462Z,95095.00
2023-04-16T07:02:34.521Z,95093.00
2023-04-16T07:03:34.451Z,95095.00
2023-04-16T07:04:34.345Z,95097.00
2023-04-16T07:05:34.332Z,95097.00
2023-04-16T07:06:34.325Z,95098.00
2023-04-16T07:07:34.322Z,95098.00
2023-04-16T07:08:34.322Z,95103.00
2023-04-16T07:09:34.334Z,95105.00
2023-04-16T07:10:34.307Z,95105.00
2023-04-16T07:11:34.297Z,95103.00
2023-04-16T07:12:34.287Z,95106.00
2023-04-16T07:13:34.298Z,95105.00
2023-04-16T07:14:34.274Z,95100.00
2023-04-16T07:15:34.274Z,95100.00
2023-04-16T07:16:34.297Z,95098.00
2023-04-16T07:17:34.284Z,95100.00
2023-04-16T07:18:34.267Z,95098.00
2023-04-16T07:19:34.293Z,95100.00
2023-04-16T07:20:34.355Z,95105.00
2023-04-16T07:21:34.420Z,95105.00
2023-04-16T07:22:34.482Z,95105.00
2023-04-16T07:23:34.537Z,95106.00
2023-04-16T07:24:34.599Z,95110.00
2023-04-16T07:25:34.688Z,95110.00
2023-04-16T07:26:34.712Z,95108.00
2023-04-16T07:27:34.769Z,95110.00
2023-04-16T07:28:34.843Z,95110.00
2023-04-16T07:29:34.885Z,95110.00
2023-04-16T07:30:34.941Z,95108.00
2023-04-16T07:31:35.037Z,95110.00
2023-04-16T07:32:35.074Z,95110.00
2023-04-16T07:33:35.108Z,95110.00
2023-04-16T07:34:35.160Z,95108.00
2023-04-16T07:35:35.218Z,95110.00
2023-04-16T07:36:35.293Z,95110.00
2023-04-16T07:37:35.337Z,95116.00
2023-04-16T07:38:35.402Z,95110.00
2023-04-16T07:39:35.464Z,95110.00
2023-04-16T07:40:35.516Z,95110.00
2023-04-16T07:41:35.608Z,95108.00
2023-04-16T07:42:35.715Z,95110.00
2023-04-16T07:43:35.703Z,95110.00
2023-04-16T07:44:35.757Z,95108.00
2023-04-16T07:45:35.831Z,95108.00
2023-04-16T07:46:45.543Z,95110.00
2023-04-16T07:47:35.919Z,95108.00
2023-04-16T07:48:35.844Z,95106.00
2023-04-16T07:49:35.832Z,95112.00
2023-04-16T07:50:35.832Z,95112.00
2023-04-16T07:51:35.823Z,95112.00
2023-04-16T07:52:35.820Z,95110.00
2023-04-16T07:53:35.812Z,95112.00
2023-04-16T07:54:35.810Z,95114.00
2023-04-16T07:55:35.801Z,95112.00
2023-04-16T07:56:35.792Z,95112.00
2023-04-16T07:57:35.812Z,95114.00
2023-04-16T07:58:35.777Z,95116.00
2023-04-16T07:59:35.779Z,95114.00
2023-04-16T08:00:35.770Z,95116.00
2023-04-16T08:01:35.757Z,95118.00
2023-04-16T08:02:35.828Z,95120.00
2023-04-16T08:03:35.914Z,95120.00
2023-04-16T08:04:35.945Z,95120.00
2023-04-16T08:05:35.732Z,95122.00
2023-04-16T08:06:35.719Z,95122.00
2023-04-16T08:07:35.727Z,95126.00
2023-04-16T08:08:35.703Z,95126.00
2023-04-16T08:09:35.700Z,95126.00
2023-04-16T08:10:35.695Z,95124.00
2023-04-16T08:11:35.729Z,95128.00
2023-04-16T08:12:35.784Z,95128.00
2023-04-16T08:13:35.895Z,95132.00
2023-04-16T08:14:35.882Z,95130.00
2023-04-16T08:15:35.978Z,95130.00
2023-04-16T08:16:35.982Z,95132.00
2023-04-16T08:17:36.043Z,95132.00
2023-04-16T08:18:36.073Z,95134.00
2023-04-16T08:19:36.123Z,95132.00
2023-04-16T08:20:36.170Z,95134.00
2023-04-16T08:21:36.237Z,95136.00
2023-04-16T08:22:36.285Z,95134.00
2023-04-16T08:23:36.330Z,95136.00
2023-04-16T08:24:36.402Z,95134.00
2023-04-16T08:25:36.429Z,95140.00
2023-04-16T08:26:36.486Z,95140.00
2023-04-16T08:27:36.543Z,95140.00
2023-04-16T08:28:36.596Z,95136.00
2023-04-16T08:29:36.665Z,95136.00
2023-04-16T08:30:36.692Z,95140.00
2023-04-16T08:31:36.804Z,95142.00
2023-04-16T08:32:36.829Z,95138.00
2023-04-16T08:33:36.853Z,95144.00
2023-04-16T08:34:36.907Z,95140.00
2023-04-16T08:35:36.959Z,95140.00
2023-04-16T08:36:37.011Z,95144.00
2023-04-16T08:37:37.068Z,95144.00
2023-04-16T08:38:37.116Z,95144.00
2023-04-16T08:39:37.157Z,95144.00
2023-04-16T08:40:37.209Z,95144.00
2023-04-16T08:41:37.263Z,95147.00
2023-04-16T08:42:37.309Z,95145.00
2023-04-16T08:43:37.373Z,95145.00
2023-04-16T08:44:37.436Z,95145.00
2023-04-16T08:45:37.488Z,95145.00
2023-04-16T08:46:37.550Z,95144.00
2023-04-16T08:47:37.647Z,95145.00
2023-04-16T08:48:37.622Z,95147.00
2023-04-16T08:49:37.670Z,95147.00
2023-04-16T08:50:37.714Z,95145.00
2023-04-16T08:51:37.760Z,95145.00
2023-04-16T08:52:37.813Z,95145.00
2023-04-16T08:53:37.869Z,95145.00
2023-04-16T08:54:37.908Z,95145.00
2023-04-16T08:55:37.961Z,95145.00
2023-04-16T08:56:38.001Z,95145.00
2023-04-16T08:57:38.055Z,95145.00
2023-04-16T08:58:38.100Z,95147.00
2023-04-16T08:59:38.167Z,95147.00
2023-04-16T09:00:38.198Z,95147.00
2023-04-16T09:01:38.321Z,95147.00
2023-04-16T09:02:38.589Z,95147.00
2023-04-16T09:03:38.500Z,95151.00
2023-04-16T09:04:38.516Z,95149.00
2023-04-16T09:05:38.432Z,95149.00
2023-04-16T09:06:38.481Z,95151.00
2023-04-16T09:07:38.569Z,95149.00
2023-04-16T09:08:38.576Z,95151.00
2023-04-16T09:09:38.622Z,95149.00
2023-04-16T09:10:38.699Z,95149.00
2023-04-16T09:11:38.716Z,95153.00
2023-04-16T09:12:38.761Z,95157.00
2023-04-16T09:13:38.798Z,95157.00
2023-04-16T09:14:38.851Z,95155.00
2023-04-16T09:15:38.897Z,95157.00
2023-04-16T09:16:39.214Z,95159.00
2023-04-16T09:17:39.035Z,95159.00
2023-04-16T09:18:39.073Z,95155.00
2023-04-16T09:19:39.080Z,95155.00
2023-04-16T09:20:39.109Z,95157.00
2023-04-16T09:21:39.163Z,95157.00
2023-04-16T09:22:39.193Z,95153.00
2023-04-16T09:23:39.236Z,95155.00
2023-04-16T09:24:39.292Z,95157.00
2023-04-16T09:25:39.328Z,95153.00
2023-04-16T09:26:39.371Z,95153.00
2023-04-16T09:27:39.416Z,95153.00
2023-04-16T09:28:39.471Z,95151.00
2023-04-16T09:29:39.526Z,95151.00
2023-04-16T09:30:39.569Z,95151.00
2023-04-16T09:31:39.653Z,95149.00
2023-04-16T09:32:39.716Z,95151.00
2023-04-16T09:33:39.801Z,95153.00
2023-04-16T09:34:39.787Z,95149.00
2023-04-16T09:35:39.831Z,95151.00
2023-04-16T09:36:39.884Z,95149.00
2023-04-16T09:37:39.930Z,95151.00
2023-04-16T09:38:39.980Z,95151.00
2023-04-16T09:39:40.032Z,95151.00
2023-04-16T09:40:40.082Z,95153.00
2023-04-16T09:41:40.113Z,95149.00
2023-04-16T09:42:40.179Z,95149.00
2023-04-16T09:43:40.214Z,95145.00
2023-04-16T09:44:40.250Z,95147.00
2023-04-16T09:45:41.295Z,95147.00
2023-04-16T09:46:40.334Z,95145.00
2023-04-16T09:47:40.389Z,95147.00
2023-04-16T09:48:40.417Z,95147.00
2023-04-16T09:49:40.498Z,95147.00
2023-04-16T09:50:40.518Z,95144.00
2023-04-16T09:51:40.565Z,95145.00
2023-04-16T09:52:40.603Z,95147.00
2023-04-16T09:53:40.644Z,95145.00
2023-04-16T09:54:40.686Z,95144.00
2023-04-16T09:55:40.730Z,95145.00
2023-04-16T09:56:40.780Z,95144.00
2023-04-16T09:57:40.812Z,95145.00
2023-04-16T09:58:40.856Z,95145.00
2023-04-16T09:59:40.899Z,95145.00
2023-04-16T10:00:43.284Z,95147.00
2023-04-16T10:01:40.992Z,95147.00
2023-04-16T10:02:40.973Z,95147.00
2023-04-16T10:03:41.098Z,95151.00
2023-04-16T10:04:40.959Z,95149.00
2023-04-16T10:05:40.934Z,95147.00
2023-04-16T10:06:40.904Z,95147.00
2023-04-16T10:07:40.888Z,95145.00
2023-04-16T10:08:40.887Z,95145.00
2023-04-16T10:09:40.889Z,95145.00
2023-04-16T10:10:40.882Z,95147.00
2023-04-16T10:11:40.869Z,95145.00
2023-04-16T10:12:40.863Z,95145.00
2023-04-16T10:13:40.864Z,95144.00
2023-04-16T10:14:40.851Z,95149.00
2023-04-16T10:15:40.846Z,95147.00
2023-04-16T10:16:41.179Z,95147.00
2023-04-16T10:17:40.838Z,95147.00
2023-04-16T10:18:40.822Z,95149.00
2023-04-16T10:19:40.820Z,95147.00
2023-04-16T10:20:40.814Z,95145.00
2023-04-16T10:21:40.830Z,95149.00
2023-04-16T10:22:40.797Z,95147.00
2023-04-16T10:23:40.806Z,95147.00
2023-04-16T10:24:40.784Z,95147.00
2023-04-16T10:25:40.788Z,95147.00
2023-04-16T10:26:40.784Z,95149.00
2023-04-16T10:27:40.832Z,95149.00
2023-04-16T10:28:40.873Z,95149.00
2023-04-16T10:29:40.916Z,95149.00
2023-04-16T10:30:40.969Z,95149.00
2023-04-16T10:31:40.981Z,95149.00
2023-04-16T10:32:41.044Z,95151.00
2023-04-16T10:33:41.056Z,95151.00
2023-04-16T10:34:41.122Z,95149.00
2023-04-16T10:35:41.157Z,95149.00
2023-04-16T10:36:41.177Z,95149.00
2023-04-16T10:37:41.237Z,95149.00
2023-04-16T10:38:41.251Z,95149.00
2023-04-16T10:39:41.289Z,95149.00
2023-04-16T10:40:41.333Z,95149.00
2023-04-16T10:41:41.367Z,95149.00
2023-04-16T10:42:41.406Z,95149.00
2023-04-16T10:43:41.440Z,95151.00
2023-04-16T10:44:44.439Z,95149.00
2023-04-16T10:45:41.474Z,95151.00
2023-04-16T10:46:41.546Z,95147.00
2023-04-16T10:47:41.465Z,95147.00
2023-04-16T10:48:49.224Z,95153.00
2023-04-16T10:49:41.454Z,95149.00
2023-04-16T10:50:41.451Z,95151.00
2023-04-16T10:51:41.439Z,95151.00
2023-04-16T10:52:41.426Z,95151.00
2023-04-16T10:53:41.445Z,95151.00
2023-04-16T10:54:41.420Z,95149.00
2023-04-16T10:55:41.416Z,95147.00
2023-04-16T10:56:41.408Z,95147.00
2023-04-16T10:57:41.393Z,95149.00
2023-04-16T10:58:41.386Z,95149.00
2023-04-16T10:59:41.379Z,95149.00
2023-04-16T11:00:41.383Z,95151.00
2023-04-16T11:01:41.406Z,95149.00
2023-04-16T11:02:41.567Z,95147.00
2023-04-16T11:03:41.536Z,95151.00
2023-04-16T11:04:41.436Z,95149.00
2023-04-16T11:05:41.342Z,95151.00
2023-04-16T11:06:41.335Z,95149.00
2023-04-16T11:07:41.330Z,95151.00
2023-04-16T11:08:53.306Z,95149.00
2023-04-16T11:09:41.342Z,95149.00
2023-04-16T11:10:41.309Z,95149.00
2023-04-16T11:11:41.311Z,95151.00
2023-04-16T11:12:41.299Z,95149.00
2023-04-16T11:13:42.522Z,95149.00
2023-04-16T11:14:41.284Z,95151.00
2023-04-16T11:15:41.286Z,95153.00
2023-04-16T11:16:41.280Z,95149.00
2023-04-16T11:17:41.274Z,95151.00
2023-04-16T11:18:48.782Z,95149.00
2023-04-16T11:19:41.245Z,95151.00
2023-04-16T11:20:41.234Z,95153.00
2023-04-16T11:21:41.235Z,95151.00
2023-04-16T11:22:41.227Z,95151.00
2023-04-16T11:23:41.218Z,95149.00
2023-04-16T11:24:41.210Z,95149.00
2023-04-16T11:25:41.231Z,95149.00
2023-04-16T11:26:41.200Z,95145.00
2023-04-16T11:27:41.194Z,95147.00
2023-04-16T11:28:41.186Z,95145.00
2023-04-16T11:29:41.180Z,95145.00
2023-04-16T11:30:41.172Z,95145.00
2023-04-16T11:31:41.222Z,95145.00
2023-04-16T11:32:41.224Z,95147.00
2023-04-16T11:33:41.174Z,95144.00
2023-04-16T11:34:41.154Z,95145.00
2023-04-16T11:35:41.155Z,95145.00
2023-04-16T11:36:41.132Z,95147.00
2023-04-16T11:37:41.132Z,95145.00
2023-04-16T11:38:41.177Z,95147.00
2023-04-16T11:39:41.115Z,95145.00
2023-04-16T11:40:41.109Z,95147.00
2023-04-16T11:41:41.143Z,95147.00
2023-04-16T11:42:41.158Z,95151.00
2023-04-16T11:43:41.092Z,95147.00
2023-04-16T11:44:41.080Z,95147.00